Tropical Cyclones
[Index]
Main Index Home Page Stock Weather Photos Extreme Storms Discussion Storm News and Storm Chasing Reports Tropical Cyclones / Hurricanes / Typhoons Weather Data and Links Wild Fires / Bushfires Weather Observation Techniques Weather Picture Catalogue Tornado Pictures and Reports Stock Video Footage and DVDs for sale
Season 2009-2010 Tropical Cyclone GELANE Track Map
Season 2009-2010 Summaries (Operational Data): [AU] [SIO] [SPAC] [SH]
<<- Previous TC | 2009-2010 Season | Next TC ->>

click for intensity scale information  Lat/long Grid: Show Hide

 Date Labels: Show Hide

Operational Tropical Cyclone Data : JTWC Advisories

Name: GELANE
Number: 1016

15 Feb 2010 06:00 UTC to 21 Feb 2010 23:00 UTC

    date/time    lat    long     hPa   cat  kts
2010-02-15 06   10.0    58.5    1002         25          
2010-02-15 12    9.3    58.7    1001         25          
2010-02-15 18   10.0    59.3    1001         25          
2010-02-16 00   11.1    59.4     999         25          
2010-02-16 06   12.0    60.2     996         30          
2010-02-16 12   12.6    60.2     990    1    40          
2010-02-16 18   12.9    60.5     987    1    45          
2010-02-17 00   13.2    60.7     980    2    50          
2010-02-17 06   13.5    61.3     960    3    75          
2010-02-17 12   14.1    61.9     965    3    70          
2010-02-17 18   14.5    62.0     971    2    60          
2010-02-18 00   14.6    62.1     975    2    60          
2010-02-18 06   14.9    62.1     975    2    60          
2010-02-18 12   15.4    62.2     975    3    70          
2010-02-18 18   15.8    62.3     975    3    70          
2010-02-19 00   16.3    62.3     968    3    75          
2010-02-19 06   16.7    62.2     950    4    90          
2010-02-19 12   17.4    62.1     930    5   110          
2010-02-19 18   18.0    62.0     945    4   100          
2010-02-20 00   18.4    61.7     955    4    90          
2010-02-20 06   18.6    61.5     970    3    75          
2010-02-20 12   19.1    61.4     980    2    60          
2010-02-20 18   19.5    61.4     980    2    60          
2010-02-21 00   20.8    61.5     983    2    60          
2010-02-21 06   21.3    62.0     984    2    55          
2010-02-21 12   20.7    61.3     998    1    35          
2010-02-21 18   20.2    60.5    1002         25          
2010-02-21 23   19.4    59.9                             
Winds are 10-min average.

Tropical cyclone tracks developed by Michael Bath using operational warnings and advisories and Google Maps.


[Australian Severe Weather index] [Copyright Notice] [Email Contacts] [Search This Site] [Privacy Policy]
Document: tropical_cyclone_gelane.htm Updated: 28 May 2013